Preflight/Weather

The current temperature at Deer Valley airport is 12°C  or 54°F

Deer Valley Metar:

KDVT 150853Z AUTO 00000KT 10SM FEW055 12/07 A2976 RMK AO2 SLP066 T01170072 55005

Terminal Area Forecast for Phoenix:

TAF AMD KPHX 150841Z 1509/1612 12005KT P6SM SCT200 FM151400 VRB06KT P6SM SCT050 SCT200 FM151700 27007KT P6SM FEW060 BKN250 FM152000 27013KT P6SM FEW060 BKN250 FM160200 26008KT P6SM FEW100 SCT250 FM160600 VRB06KT P6SM FEW250